createdAt,value
2023-01-05T00:01:01.735Z,1.37
2023-01-05T00:03:28.868Z,1.17
2023-01-05T00:05:59.685Z,0.50
2023-01-05T00:08:30.278Z,0.77
2023-01-05T00:11:24.420Z,0.90
2023-01-05T00:14:10.369Z,0.70
2023-01-05T00:16:56.457Z,2.03
2023-01-05T00:19:42.457Z,1.23
2023-01-05T00:22:33.563Z,1.77
2023-01-05T00:25:11.593Z,1.53
2023-01-05T00:27:40.427Z,0.47
2023-01-05T00:30:08.004Z,4.27
2023-01-05T00:32:35.110Z,1.97
2023-01-05T00:35:02.331Z,1.13
2023-01-05T00:37:31.577Z,0.73
2023-01-05T00:39:58.672Z,2.10
2023-01-05T00:42:25.721Z,2.83
2023-01-05T00:44:53.526Z,2.37
2023-01-05T00:47:20.589Z,1.17
2023-01-05T00:49:47.660Z,2.90
2023-01-05T00:52:14.701Z,2.87
2023-01-05T00:54:41.787Z,1.77
2023-01-05T00:57:11.260Z,2.50
2023-01-05T00:59:38.314Z,1.17
2023-01-05T01:02:05.632Z,1.17
2023-01-05T01:04:33.553Z,2.30
2023-01-05T01:07:00.979Z,0.30
2023-01-05T01:09:28.215Z,0.73
2023-01-05T01:11:55.295Z,1.43
2023-01-05T01:14:22.746Z,2.30
2023-01-05T01:16:49.855Z,1.20
2023-01-05T01:19:21.682Z,2.53
2023-01-05T01:21:49.418Z,0.70
2023-01-05T01:24:20.699Z,1.87
2023-01-05T01:26:48.020Z,1.27
2023-01-05T01:29:17.367Z,1.60
2023-01-05T01:31:45.172Z,1.43
2023-01-05T01:34:12.224Z,1.47
2023-01-05T01:36:39.309Z,0.97
2023-01-05T01:39:06.401Z,2.33
2023-01-05T01:41:33.455Z,1.30
2023-01-05T01:44:00.603Z,4.57
2023-01-05T01:46:28.422Z,1.67
2023-01-05T01:48:58.399Z,2.77
2023-01-05T01:51:29.390Z,2.97
2023-01-05T01:53:58.103Z,1.10
2023-01-05T01:56:27.714Z,2.23
2023-01-05T01:58:54.831Z,2.17
2023-01-05T02:01:22.187Z,2.23
2023-01-05T02:03:49.326Z,2.50
2023-01-05T02:06:16.490Z,2.20
2023-01-05T02:08:43.778Z,2.23
2023-01-05T02:11:29.630Z,1.77
2023-01-05T02:13:56.684Z,2.10
2023-01-05T02:16:41.467Z,3.27
2023-01-05T02:19:08.552Z,2.47
2023-01-05T02:21:53.064Z,2.43
2023-01-05T02:24:26.193Z,2.10
2023-01-05T02:27:01.667Z,3.57
2023-01-05T02:29:31.500Z,3.37
2023-01-05T02:32:06.034Z,2.13
2023-01-05T02:34:35.830Z,2.37
2023-01-05T02:37:08.759Z,5.03
2023-01-05T02:39:43.821Z,2.00
2023-01-05T02:42:13.719Z,4.37
2023-01-05T02:44:40.822Z,3.17
2023-01-05T02:47:09.149Z,4.03
2023-01-05T02:49:41.060Z,2.47
2023-01-05T02:52:09.199Z,4.30
2023-01-05T02:54:42.027Z,3.67
2023-01-05T02:57:14.600Z,2.37
2023-01-05T02:59:46.319Z,3.87
2023-01-05T03:02:15.698Z,6.43
2023-01-05T03:04:49.075Z,3.03
2023-01-05T03:07:18.442Z,2.80
2023-01-05T03:09:46.610Z,3.00
2023-01-05T03:12:52.188Z,4.10
2023-01-05T03:15:30.799Z,4.57
2023-01-05T03:18:02.868Z,4.13
2023-01-05T03:20:31.792Z,3.83
2023-01-05T03:23:18.521Z,2.40
2023-01-05T03:26:05.077Z,4.23
2023-01-05T03:29:07.278Z,2.90
2023-01-05T03:31:55.134Z,3.83
2023-01-05T03:34:43.566Z,1.90
2023-01-05T03:37:23.744Z,4.17
2023-01-05T03:39:50.971Z,3.00
2023-01-05T03:42:18.186Z,2.53
2023-01-05T03:44:46.479Z,4.90
2023-01-05T03:47:14.790Z,4.60
2023-01-05T03:49:41.920Z,5.43
2023-01-05T03:52:09.014Z,2.73
2023-01-05T03:54:36.062Z,7.00
2023-01-05T03:57:03.133Z,3.47
2023-01-05T03:59:30.204Z,6.37
2023-01-05T04:01:57.332Z,6.27
2023-01-05T04:04:24.483Z,5.97
2023-01-05T04:06:51.559Z,3.83
2023-01-05T04:09:18.616Z,4.57
2023-01-05T04:11:45.695Z,3.73
2023-01-05T04:14:12.744Z,5.00
2023-01-05T04:16:39.896Z,3.63
2023-01-05T04:19:07.003Z,4.47
2023-01-05T04:21:34.042Z,5.37
2023-01-05T04:24:01.138Z,3.93
2023-01-05T04:26:28.176Z,3.33
2023-01-05T04:28:55.212Z,4.60
2023-01-05T04:31:22.314Z,3.73
2023-01-05T04:33:49.435Z,5.43
2023-01-05T04:36:16.503Z,3.50
2023-01-05T04:38:43.571Z,4.37
2023-01-05T04:41:11.195Z,5.07
2023-01-05T04:43:38.342Z,4.70
2023-01-05T04:46:05.548Z,5.27
2023-01-05T04:48:32.720Z,4.23
2023-01-05T04:50:59.847Z,3.53
2023-01-05T04:53:26.924Z,3.87
2023-01-05T04:55:53.988Z,3.63
2023-01-05T04:58:21.107Z,3.40
2023-01-05T05:00:48.875Z,2.97
2023-01-05T05:03:16.020Z,3.17
2023-01-05T05:05:43.151Z,2.97
2023-01-05T05:08:10.510Z,3.20
2023-01-05T05:10:37.560Z,3.50
2023-01-05T05:13:04.590Z,2.93
2023-01-05T05:15:31.685Z,5.40
2023-01-05T05:18:00.134Z,6.23
2023-01-05T05:20:30.011Z,5.70
2023-01-05T05:22:57.483Z,6.47
2023-01-05T05:25:24.563Z,5.00
2023-01-05T05:27:51.598Z,6.80
2023-01-05T05:30:18.660Z,5.20
2023-01-05T05:32:45.713Z,6.03
2023-01-05T05:35:12.852Z,5.67
2023-01-05T05:37:39.937Z,6.13
2023-01-05T05:40:07.229Z,4.50
2023-01-05T05:42:34.380Z,7.73
2023-01-05T05:45:01.714Z,4.17
2023-01-05T05:47:28.785Z,5.67
2023-01-05T05:49:55.848Z,3.83
2023-01-05T05:52:22.935Z,4.03
2023-01-05T05:54:50.159Z,5.20
2023-01-05T05:57:17.552Z,4.00
2023-01-05T05:59:44.778Z,4.70
2023-01-05T06:02:11.991Z,6.53
2023-01-05T06:04:39.137Z,3.73
2023-01-05T06:07:06.199Z,2.93
2023-01-05T06:09:33.253Z,5.23
2023-01-05T06:12:00.344Z,3.37
2023-01-05T06:14:27.455Z,3.93
2023-01-05T06:16:54.544Z,3.73
2023-01-05T06:19:21.608Z,6.70
2023-01-05T06:21:48.659Z,3.70
2023-01-05T06:24:15.757Z,4.57
2023-01-05T06:26:42.819Z,4.40
2023-01-05T06:29:09.922Z,6.07
2023-01-05T06:31:37.052Z,3.67
2023-01-05T06:34:04.171Z,5.00
2023-01-05T06:36:31.261Z,4.10
2023-01-05T06:38:58.306Z,4.30
2023-01-05T06:41:25.437Z,4.77
2023-01-05T06:43:52.505Z,4.47
2023-01-05T06:46:19.713Z,3.53
2023-01-05T06:48:46.869Z,3.80
2023-01-05T06:51:14.015Z,4.07
2023-01-05T06:53:41.054Z,4.20
2023-01-05T06:56:08.277Z,5.90
2023-01-05T06:58:35.420Z,6.20
2023-01-05T07:01:02.664Z,6.83
2023-01-05T07:03:29.862Z,2.60
2023-01-05T07:05:56.947Z,3.63
2023-01-05T07:08:24.019Z,3.57
2023-01-05T07:10:51.065Z,4.83
2023-01-05T07:13:18.195Z,4.57
2023-01-05T07:15:45.242Z,4.33
2023-01-05T07:18:12.311Z,3.80
2023-01-05T07:20:39.394Z,3.77
2023-01-05T07:23:06.499Z,3.17
2023-01-05T07:25:33.650Z,4.03
2023-01-05T07:28:00.715Z,8.57
2023-01-05T07:30:27.852Z,4.40
2023-01-05T07:32:58.601Z,6.90
2023-01-05T07:35:25.711Z,4.17
2023-01-05T07:37:52.803Z,5.27
2023-01-05T07:40:19.861Z,6.33
2023-01-05T07:42:50.588Z,3.87
2023-01-05T07:45:17.649Z,6.97
2023-01-05T07:47:44.723Z,6.00
2023-01-05T07:50:11.907Z,3.47
2023-01-05T07:52:39.244Z,3.23
2023-01-05T07:55:07.115Z,6.50
2023-01-05T07:57:34.218Z,3.77
2023-01-05T08:00:01.419Z,5.53
2023-01-05T08:02:33.903Z,4.33
2023-01-05T08:05:02.896Z,3.30
2023-01-05T08:07:29.951Z,5.17
2023-01-05T08:10:15.561Z,5.33
2023-01-05T08:13:01.578Z,5.20
2023-01-05T08:15:28.681Z,3.30
2023-01-05T08:17:55.749Z,2.93
2023-01-05T08:20:22.879Z,4.50
2023-01-05T08:22:53.916Z,4.17
2023-01-05T08:25:21.243Z,5.20
2023-01-05T08:27:48.396Z,5.50
2023-01-05T08:30:15.578Z,4.70
2023-01-05T08:32:43.136Z,4.13
2023-01-05T08:35:10.271Z,3.10
2023-01-05T08:37:37.413Z,4.00
2023-01-05T08:40:04.625Z,5.97
2023-01-05T08:42:31.652Z,4.40
2023-01-05T08:44:58.768Z,3.23
2023-01-05T08:47:28.450Z,4.07
2023-01-05T08:49:55.835Z,4.93
2023-01-05T08:52:23.270Z,3.63
2023-01-05T08:54:50.809Z,4.90
2023-01-05T08:57:17.898Z,5.17
2023-01-05T08:59:45.116Z,3.53
2023-01-05T09:02:12.677Z,5.20
2023-01-05T09:04:39.951Z,6.17
2023-01-05T09:07:07.031Z,3.53
2023-01-05T09:09:34.233Z,4.20
2023-01-05T09:12:01.408Z,3.47
2023-01-05T09:14:28.482Z,2.70
2023-01-05T09:17:10.859Z,3.73
2023-01-05T09:19:37.959Z,4.47
2023-01-05T09:22:05.070Z,4.63
2023-01-05T09:24:32.174Z,5.80
2023-01-05T09:26:59.246Z,4.60
2023-01-05T09:29:26.318Z,6.00
2023-01-05T09:31:53.417Z,2.87
2023-01-05T09:34:20.584Z,4.33
2023-01-05T09:36:47.688Z,5.47
2023-01-05T09:39:14.809Z,3.93
2023-01-05T09:41:46.993Z,3.53
2023-01-05T09:44:20.176Z,4.43
2023-01-05T09:46:48.539Z,6.10
2023-01-05T09:49:21.628Z,5.73
2023-01-05T09:51:49.952Z,3.63
2023-01-05T09:54:18.017Z,4.33
2023-01-05T09:59:42.620Z,3.60
2023-01-05T10:02:18.880Z,3.60
2023-01-05T10:04:47.506Z,2.40
2023-01-05T10:07:26.705Z,5.10
2023-01-05T10:09:54.240Z,4.63
2023-01-05T10:12:51.050Z,2.70
2023-01-05T10:15:19.127Z,5.23
2023-01-05T10:17:46.288Z,3.80
2023-01-05T10:20:16.567Z,3.93
2023-01-05T10:22:54.764Z,2.70
2023-01-05T10:25:37.160Z,2.43
2023-01-05T10:28:24.557Z,2.83
2023-01-05T10:30:51.698Z,2.40
2023-01-05T10:33:41.544Z,4.00
2023-01-05T10:36:28.107Z,2.10
2023-01-05T10:39:05.709Z,3.67
2023-01-05T10:41:50.874Z,4.13
2023-01-05T10:44:59.055Z,2.30
2023-01-05T10:47:26.724Z,3.00
2023-01-05T10:49:54.509Z,5.70
2023-01-05T10:52:22.503Z,3.97
2023-01-05T10:54:49.587Z,1.30
2023-01-05T10:57:36.851Z,2.43
2023-01-05T11:00:12.027Z,2.03
2023-01-05T11:02:40.785Z,3.50
2023-01-05T11:05:11.156Z,2.40
2023-01-05T11:07:49.534Z,3.97
2023-01-05T11:10:35.251Z,2.00
2023-01-05T11:13:04.154Z,2.00
2023-01-05T11:15:32.743Z,2.53
2023-01-05T11:18:00.087Z,4.53
2023-01-05T11:20:29.226Z,3.63
2023-01-05T11:22:56.424Z,2.47
2023-01-05T11:25:23.483Z,2.53
2023-01-05T11:28:06.750Z,2.17
2023-01-05T11:30:34.349Z,2.90
2023-01-05T11:33:01.822Z,2.97
2023-01-05T11:35:34.144Z,2.87
2023-01-05T11:38:01.504Z,3.97
2023-01-05T11:40:30.476Z,3.80
2023-01-05T11:42:58.165Z,2.70
2023-01-05T11:45:25.491Z,2.57
2023-01-05T11:47:57.212Z,3.87
2023-01-05T11:50:26.370Z,2.33
2023-01-05T11:52:58.234Z,2.53
2023-01-05T11:55:33.686Z,2.70
2023-01-05T11:58:12.930Z,3.13
2023-01-05T12:00:40.775Z,1.90
2023-01-05T12:03:26.407Z,2.03
2023-01-05T12:05:58.119Z,3.70
2023-01-05T12:08:37.057Z,3.67
2023-01-05T12:11:09.904Z,3.07
2023-01-05T12:13:42.839Z,4.07
2023-01-05T12:16:16.211Z,3.90
2023-01-05T12:19:01.958Z,1.20
2023-01-05T12:21:35.288Z,3.67
2023-01-05T12:24:11.488Z,2.17
2023-01-05T12:26:48.301Z,2.60
2023-01-05T12:35:31.786Z,1.87
2023-01-05T12:38:09.306Z,2.17
2023-01-05T12:40:50.329Z,2.83
2023-01-05T12:43:17.431Z,1.53
2023-01-05T12:46:10.902Z,1.23
2023-01-05T12:48:50.270Z,1.20
2023-01-05T12:51:19.847Z,2.23
2023-01-05T12:53:46.864Z,1.93
2023-01-05T12:56:18.368Z,1.57
2023-01-05T12:58:53.949Z,1.20
2023-01-05T13:01:26.015Z,2.30
2023-01-05T13:03:59.247Z,2.23
2023-01-05T13:06:27.758Z,1.47
2023-01-05T13:08:56.984Z,1.00
2023-01-05T13:11:32.647Z,2.83
2023-01-05T13:14:25.756Z,2.00
2023-01-05T13:17:00.401Z,2.03
2023-01-05T13:19:45.556Z,2.50
2023-01-05T13:22:20.029Z,2.60
2023-01-05T13:24:47.057Z,3.10
2023-01-05T13:27:14.341Z,3.13
2023-01-05T13:29:42.397Z,3.50
2023-01-05T13:32:28.306Z,2.57
2023-01-05T13:35:10.811Z,3.67
2023-01-05T13:37:45.005Z,2.80
2023-01-05T13:40:15.150Z,4.27
2023-01-05T13:42:51.043Z,3.97
2023-01-05T13:45:33.708Z,1.47
2023-01-05T13:50:53.933Z,2.23
2023-01-05T13:55:53.365Z,3.53
2023-01-05T13:58:38.650Z,3.40
2023-01-05T14:01:08.097Z,3.33
2023-01-05T14:03:39.707Z,3.70
2023-01-05T14:06:09.170Z,2.13
2023-01-05T14:08:37.949Z,2.83
2023-01-05T14:11:15.436Z,3.47
2023-01-05T14:13:45.576Z,4.03
2023-01-05T14:16:31.233Z,4.67
2023-01-05T14:19:10.457Z,5.47
2023-01-05T14:21:49.655Z,3.70
2023-01-05T14:24:53.770Z,5.23
2023-01-05T14:27:23.851Z,3.00
2023-01-05T14:32:26.831Z,1.60
2023-01-05T14:37:33.635Z,2.03
2023-01-05T14:40:08.620Z,2.33
2023-01-05T14:42:40.866Z,2.23
2023-01-05T14:45:21.264Z,1.23
2023-01-05T14:47:49.615Z,1.17
2023-01-05T14:50:26.987Z,2.07
2023-01-05T14:52:54.029Z,1.80
2023-01-05T14:55:44.441Z,2.10
2023-01-05T14:58:13.201Z,2.00
2023-01-05T15:01:02.499Z,1.83
2023-01-05T15:03:44.853Z,2.97
2023-01-05T15:06:11.890Z,4.33
2023-01-05T15:09:02.223Z,2.73
2023-01-05T15:11:54.038Z,5.80
2023-01-05T15:14:39.728Z,2.20
2023-01-05T15:17:25.704Z,2.23
2023-01-05T15:19:52.803Z,1.37
2023-01-05T15:22:38.158Z,1.30
2023-01-05T15:25:20.949Z,1.57
2023-01-05T15:27:56.931Z,2.30
2023-01-05T15:30:39.166Z,1.50
2023-01-05T15:33:30.161Z,1.10
2023-01-05T15:36:02.699Z,1.23
2023-01-05T15:38:30.765Z,1.27
2023-01-05T15:41:00.888Z,1.20
2023-01-05T15:43:28.211Z,2.20
2023-01-05T15:45:55.473Z,3.20
2023-01-05T15:48:35.485Z,2.77
2023-01-05T15:51:02.995Z,1.70
2023-01-05T15:53:38.244Z,1.43
2023-01-05T15:56:07.268Z,1.77
2023-01-05T15:58:44.099Z,2.20
2023-01-05T16:01:11.197Z,1.10
2023-01-05T16:03:39.163Z,1.90
2023-01-05T16:06:26.527Z,1.27
2023-01-05T16:08:55.248Z,2.47
2023-01-05T16:11:26.076Z,1.17
2023-01-05T16:14:03.317Z,1.00
2023-01-05T16:16:53.768Z,2.43
2023-01-05T16:19:21.357Z,1.97
2023-01-05T16:21:53.610Z,3.53
2023-01-05T16:24:26.671Z,3.27
2023-01-05T16:26:53.940Z,1.20
2023-01-05T16:29:42.835Z,1.67
2023-01-05T16:32:27.032Z,1.57
2023-01-05T16:35:14.041Z,3.87
2023-01-05T16:37:41.104Z,1.50
2023-01-05T16:40:19.681Z,1.63
2023-01-05T16:42:50.476Z,0.50
2023-01-05T16:45:24.780Z,2.67
2023-01-05T16:47:53.227Z,0.60
2023-01-05T16:50:20.385Z,1.53
2023-01-05T16:53:03.904Z,1.53
2023-01-05T16:55:32.984Z,0.83
2023-01-05T16:58:00.732Z,1.33
2023-01-05T17:00:32.539Z,1.20
2023-01-05T17:03:00.424Z,0.83
2023-01-05T17:05:31.971Z,1.37
2023-01-05T17:08:03.585Z,1.60
2023-01-05T17:10:30.789Z,1.00
2023-01-05T17:13:08.275Z,0.50
2023-01-05T17:15:36.433Z,0.77
2023-01-05T17:18:15.518Z,1.13
2023-01-05T17:20:43.159Z,2.47
2023-01-05T17:23:17.249Z,2.00
2023-01-05T17:25:44.306Z,0.90
2023-01-05T17:28:11.381Z,1.40
2023-01-05T17:30:38.590Z,0.93
2023-01-05T17:33:06.523Z,1.03
2023-01-05T17:35:33.679Z,2.00
2023-01-05T17:38:00.748Z,1.43
2023-01-05T17:40:28.509Z,1.33
2023-01-05T17:42:55.774Z,1.97
2023-01-05T17:45:27.092Z,1.17
2023-01-05T17:47:54.654Z,0.93
2023-01-05T17:50:22.973Z,1.80
2023-01-05T17:52:50.192Z,0.97
2023-01-05T17:55:17.333Z,2.03
2023-01-05T17:57:44.425Z,1.27
2023-01-05T18:00:13.308Z,1.67
2023-01-05T18:02:40.696Z,1.93
2023-01-05T18:05:08.931Z,0.90
2023-01-05T18:07:36.499Z,1.00
2023-01-05T18:10:04.236Z,1.13
2023-01-05T18:12:31.302Z,3.10
2023-01-05T18:14:58.440Z,2.07
2023-01-05T18:17:25.489Z,1.63
2023-01-05T18:19:52.613Z,1.40
2023-01-05T18:22:20.105Z,2.20
2023-01-05T18:24:47.575Z,2.43
2023-01-05T18:27:14.729Z,1.07
2023-01-05T18:29:42.276Z,1.03
2023-01-05T18:32:09.842Z,2.17
2023-01-05T18:34:36.974Z,2.07
2023-01-05T18:37:06.595Z,3.20
2023-01-05T18:39:37.958Z,2.97
2023-01-05T18:42:05.060Z,2.97
2023-01-05T18:44:32.134Z,3.77
2023-01-05T18:46:59.189Z,2.83
2023-01-05T18:49:26.292Z,3.40
2023-01-05T18:51:53.404Z,2.37
2023-01-05T18:54:21.022Z,2.60
2023-01-05T18:56:48.234Z,2.43
2023-01-05T18:59:15.640Z,2.10
2023-01-05T19:01:43.177Z,2.93
2023-01-05T19:04:11.093Z,2.23
2023-01-05T19:06:38.743Z,1.30
2023-01-05T19:09:06.910Z,1.33
2023-01-05T19:11:34.062Z,2.63
2023-01-05T19:14:01.856Z,1.20
2023-01-05T19:16:29.902Z,3.20
2023-01-05T19:18:59.221Z,1.80
2023-01-05T19:21:26.732Z,2.30
2023-01-05T19:23:57.540Z,1.83
2023-01-05T19:26:24.758Z,2.63
2023-01-05T19:28:51.839Z,2.87
2023-01-05T19:31:19.851Z,2.30
2023-01-05T19:33:46.949Z,2.97
2023-01-05T19:36:15.579Z,2.57
2023-01-05T19:38:43.387Z,3.30
2023-01-05T19:41:13.329Z,2.03
2023-01-05T19:43:41.167Z,1.77
2023-01-05T19:46:10.356Z,3.67
2023-01-05T19:48:38.110Z,2.30
2023-01-05T19:51:06.825Z,2.40
2023-01-05T19:53:34.379Z,4.77
2023-01-05T19:56:08.584Z,3.90
2023-01-05T19:58:36.064Z,1.17
2023-01-05T20:01:21.933Z,1.70
2023-01-05T20:03:49.169Z,1.27
2023-01-05T20:06:18.290Z,1.87
2023-01-05T20:08:52.328Z,2.50
2023-01-05T20:11:21.232Z,1.80
2023-01-05T20:13:52.310Z,1.90
2023-01-05T20:16:19.421Z,2.73
2023-01-05T20:18:46.599Z,1.40
2023-01-05T20:21:13.693Z,1.63
2023-01-05T20:23:41.910Z,2.10
2023-01-05T20:26:13.242Z,2.53
2023-01-05T20:28:40.816Z,1.97
2023-01-05T20:31:15.176Z,1.67
2023-01-05T20:33:42.297Z,3.80
2023-01-05T20:36:09.384Z,2.33
2023-01-05T20:38:36.475Z,2.50
2023-01-05T20:41:12.229Z,2.47
2023-01-05T20:43:39.331Z,3.07
2023-01-05T20:46:06.368Z,2.13
2023-01-05T20:48:35.292Z,2.57
2023-01-05T20:51:03.498Z,3.47
2023-01-05T20:53:30.782Z,2.87
2023-01-05T20:55:57.833Z,2.67
2023-01-05T20:58:25.031Z,2.27
2023-01-05T21:01:10.083Z,1.67
2023-01-05T21:03:39.025Z,1.73
2023-01-05T21:06:07.293Z,1.97
2023-01-05T21:08:35.829Z,4.33
2023-01-05T21:11:04.066Z,1.87
2023-01-05T21:13:33.139Z,3.60
2023-01-05T21:16:04.443Z,2.00
2023-01-05T21:18:32.629Z,2.30
2023-01-05T21:21:00.099Z,2.37
2023-01-05T21:23:27.143Z,2.33
2023-01-05T21:26:06.341Z,2.10
2023-01-05T21:28:35.642Z,3.00
2023-01-05T21:31:07.144Z,2.17
2023-01-05T21:33:34.484Z,2.17
2023-01-05T21:36:01.609Z,2.53
2023-01-05T21:39:02.587Z,2.93
2023-01-05T21:41:15.710Z,1.43
2023-01-05T21:43:42.989Z,2.40
2023-01-05T21:46:12.064Z,2.87
2023-01-05T21:48:39.781Z,2.37
2023-01-05T21:51:25.875Z,2.20
2023-01-05T21:54:11.713Z,2.53
2023-01-05T21:56:40.215Z,2.17
2023-01-05T21:59:08.561Z,2.27
2023-01-05T22:01:37.019Z,2.13
2023-01-05T22:04:04.213Z,3.07
2023-01-05T22:06:31.368Z,3.00
2023-01-05T22:08:58.460Z,2.23
2023-01-05T22:11:25.521Z,2.70
2023-01-05T22:13:52.658Z,3.67
2023-01-05T22:16:19.770Z,1.83
2023-01-05T22:18:46.959Z,3.33
2023-01-05T22:21:14.931Z,3.70
2023-01-05T22:23:42.061Z,3.43
2023-01-05T22:26:10.793Z,3.73
2023-01-05T22:28:38.685Z,1.90
2023-01-05T22:31:08.763Z,3.20
2023-01-05T22:33:36.928Z,3.07
2023-01-05T22:36:04.565Z,2.33
2023-01-05T22:38:31.670Z,2.03
2023-01-05T22:40:59.613Z,4.47
2023-01-05T22:43:27.534Z,3.33
2023-01-05T22:45:54.635Z,3.53
2023-01-05T22:48:21.795Z,3.10
2023-01-05T22:50:48.894Z,1.97
2023-01-05T22:53:15.961Z,1.60
2023-01-05T22:55:44.855Z,3.13
2023-01-05T22:58:11.964Z,2.70
2023-01-05T23:00:39.017Z,3.43
2023-01-05T23:03:06.074Z,3.13
2023-01-05T23:05:33.169Z,2.60
2023-01-05T23:08:00.230Z,1.57
2023-01-05T23:10:27.634Z,2.37
2023-01-05T23:12:54.769Z,2.60
2023-01-05T23:15:21.839Z,2.60
2023-01-05T23:17:48.995Z,2.47
2023-01-05T23:20:16.227Z,3.80
2023-01-05T23:22:43.540Z,3.33
2023-01-05T23:25:11.091Z,1.93
2023-01-05T23:27:38.243Z,3.73
2023-01-05T23:30:05.919Z,2.67
2023-01-05T23:32:33.004Z,2.67
2023-01-05T23:35:00.148Z,3.23
2023-01-05T23:37:29.162Z,2.73
2023-01-05T23:39:56.247Z,3.23
2023-01-05T23:42:42.088Z,2.53
2023-01-05T23:45:09.449Z,2.57
2023-01-05T23:47:36.515Z,2.73
2023-01-05T23:50:03.633Z,1.80
2023-01-05T23:52:30.691Z,2.67
2023-01-05T23:54:57.770Z,3.17
2023-01-05T23:57:24.832Z,3.10
2023-01-05T23:59:51.884Z,3.30
